Aviation Digital Data Service (ADDS)

Output produced by METARs form (0027 UTC 28 August 2016)
found at http://www.aviationweather.gov/adds/metars/
 
KLNS 272353Z 03003KT 10SM CLR 27/20 A3017 RMK AO2 SLP214 T02720200 10322 20272 53005
KLNS 272253Z 10004KT 10SM CLR 28/21 A3016 RMK AO2 SLP209 T02830206
KLNS 272153Z 09004KT 10SM CLR 31/20 A3015 RMK AO2 SLP208 T03060200
KLNS 272053Z 09005KT 10SM CLR 31/19 A3016 RMK AO2 SLP209 T03110194 56009
KLNS 271953Z 09003KT 10SM CLR 31/19 A3016 RMK AO2 SLP211 T03110189
KLNS 271853Z 11003KT 10SM CLR 31/17 A3017 RMK AO2 SLP215 T03060172
KLNS 271753Z 11003KT 10SM CLR 31/18 A3019 RMK AO2 SLP218 T03060183 10311 20217 56006
KLNS 271653Z 10006KT 10SM CLR 30/18 A3019 RMK AO2 SLP219 T03000178
KLNS 271553Z 08007KT 10SM CLR 30/18 A3020 RMK AO2 SLP223 T03000178
KLNS 271453Z 07005KT 10SM CLR 29/19 A3020 RMK AO2 SLP224 T02890194 50002
KLNS 271353Z 05006KT 10SM CLR 27/20 A3021 RMK AO2 SLP226 T02720200
KLNS 271253Z 00000KT 10SM CLR 25/20 A3020 RMK AO2 SLP223 T02500200
KLNS 271153Z 00000KT 8SM CLR 22/20 A3020 RMK AO2 SLP223 T02170200 10228 20183 51018
KLNS 271053Z 00000KT 6SM BR CLR 19/18 A3018 RMK AO2 SLP218 T01890183
KLNS 270953Z 00000KT 10SM CLR 19/19 A3016 RMK AO2 SLP210 T01940189
KLNS 270853Z AUTO 29004KT 9SM CLR 20/19 A3014 RMK AO2 SLP204 T02000189 53009
KLNS 270753Z AUTO 27003KT 10SM CLR 21/19 A3012 RMK AO2 SLP196 T02110189
KLNS 270653Z AUTO 00000KT 10SM CLR 21/19 A3012 RMK AO2 SLP196 T02060194
KLNS 270553Z AUTO 00000KT 10SM CLR 22/19 A3011 RMK AO2 SLP193 T02220189 10272 20211 51005
KLNS 270453Z AUTO 00000KT 10SM CLR 23/19 A3011 RMK AO2 SLP192 T02330189 403280217
KLNS 270353Z AUTO 15004KT 10SM CLR 22/19 A3011 RMK AO2 SLP191 T02220194
KLNS 270253Z AUTO 01004KT 10SM CLR 24/19 A3010 RMK AO2 SLP188 T02390194 51014
KLNS 270153Z AUTO 02004KT 10SM CLR 24/19 A3009 RMK AO2 SLP185 T02390194
KLNS 270053Z AUTO 01006KT 10SM CLR 24/21 A3008 RMK AO2 SLP182 T02440206
KLNS 262353Z 01004KT 10SM CLR 27/21 A3006 RMK AO2 SLP175 T02720206 10328 20272 53005
KLNS 262253Z 01004KT 10SM CLR 31/20 A3005 RMK AO2 SLP170 T03060200
KLNS 262153Z 34007KT 10SM FEW050 32/21 A3005 RMK AO2 SLP170 T03170206
KLNS 262053Z 32009KT 10SM FEW050 32/21 A3004 RMK AO2 SLP168 T03220206 55005
KLNS 261953Z 33008KT 10SM FEW050 32/21 A3004 RMK AO2 SLP168 T03220211
KLNS 261853Z 33010KT 10SM FEW050 32/21 A3005 RMK AO2 SLP170 T03170206
KLNS 261753Z 32011KT 10SM SCT037 32/21 A3005 RMK AO2 SLP173 T03170211 10322 20244 58002
KLNS 261653Z 30011KT 10SM SCT037 31/22 A3005 RMK AO2 SLP173 T03110222
KLNS 261553Z 31011KT 10SM FEW033 30/22 A3006 RMK AO2 SLP176 T03000222
KLNS 261453Z 32012KT 10SM FEW028 29/23 A3006 RMK AO2 SLP175 T02940228 51005
KLNS 261353Z 32010KT 10SM CLR 28/23 A3005 RMK AO2 SLP173 T02830233
KLNS 261253Z 30009KT 8SM CLR 27/25 A3006 RMK AO2 SLP173 T02720250